sensor_id;sensor_type;location;lat;lon;timestamp;pressure;altitude;pressure_sealevel;temperature;humidity
76590;BME280;65471;55.908;37.880;2023-11-19T00:01:41;100714.50;;;-7.82;85.64
76590;BME280;65471;55.908;37.880;2023-11-19T00:04:08;100707.38;;;-7.80;85.68
76590;BME280;65471;55.908;37.880;2023-11-19T00:06:35;100707.66;;;-7.85;85.82
76590;BME280;65471;55.908;37.880;2023-11-19T00:09:02;100716.34;;;-7.84;85.67
76590;BME280;65471;55.908;37.880;2023-11-19T00:11:30;100700.50;;;-7.83;85.36
76590;BME280;65471;55.908;37.880;2023-11-19T00:13:57;100705.84;;;-7.84;85.94
76590;BME280;65471;55.908;37.880;2023-11-19T00:16:24;100711.00;;;-7.83;86.05
76590;BME280;65471;55.908;37.880;2023-11-19T00:18:51;100695.94;;;-7.79;85.92
76590;BME280;65471;55.908;37.880;2023-11-19T00:21:19;100697.88;;;-7.83;86.21
76590;BME280;65471;55.908;37.880;2023-11-19T00:23:46;100697.88;;;-7.83;86.00
76590;BME280;65471;55.908;37.880;2023-11-19T00:26:13;100699.59;;;-7.82;85.83
76590;BME280;65471;55.908;37.880;2023-11-19T00:28:41;100698.66;;;-7.81;86.06
76590;BME280;65471;55.908;37.880;2023-11-19T00:31:10;100704.75;;;-7.80;86.38
76590;BME280;65471;55.908;37.880;2023-11-19T00:33:37;100700.41;;;-7.81;85.60
76590;BME280;65471;55.908;37.880;2023-11-19T00:36:15;100689.66;;;-7.76;86.41
76590;BME280;65471;55.908;37.880;2023-11-19T00:38:42;100696.50;;;-7.74;85.43
76590;BME280;65471;55.908;37.880;2023-11-19T00:41:09;100684.13;;;-7.72;85.93
76590;BME280;65471;55.908;37.880;2023-11-19T00:43:37;100687.69;;;-7.73;85.78
76590;BME280;65471;55.908;37.880;2023-11-19T00:46:07;100687.50;;;-7.70;85.91
76590;BME280;65471;55.908;37.880;2023-11-19T00:48:34;100683.94;;;-7.69;85.66
76590;BME280;65471;55.908;37.880;2023-11-19T00:51:01;100684.69;;;-7.67;85.53
76590;BME280;65471;55.908;37.880;2023-11-19T00:53:28;100682.06;;;-7.67;85.96
76590;BME280;65471;55.908;37.880;2023-11-19T00:55:55;100686.38;;;-7.66;85.58
76590;BME280;65471;55.908;37.880;2023-11-19T00:58:21;100671.75;;;-7.70;85.56
76590;BME280;65471;55.908;37.880;2023-11-19T01:00:49;100674.38;;;-7.70;85.85
76590;BME280;65471;55.908;37.880;2023-11-19T01:03:16;100671.94;;;-7.73;86.28
76590;BME280;65471;55.908;37.880;2023-11-19T01:05:43;100672.94;;;-7.75;86.37
76590;BME280;65471;55.908;37.880;2023-11-19T01:08:11;100679.41;;;-7.81;86.11
76590;BME280;65471;55.908;37.880;2023-11-19T01:10:38;100666.75;;;-7.89;86.23
76590;BME280;65471;55.908;37.880;2023-11-19T01:13:05;100660.81;;;-7.92;86.46
76590;BME280;65471;55.908;37.880;2023-11-19T01:15:35;100662.44;;;-7.90;86.11
76590;BME280;65471;55.908;37.880;2023-11-19T01:18:02;100658.16;;;-7.91;85.87
76590;BME280;65471;55.908;37.880;2023-11-19T01:20:32;100657.38;;;-7.93;86.33
76590;BME280;65471;55.908;37.880;2023-11-19T01:23:00;100660.09;;;-7.94;85.94
76590;BME280;65471;55.908;37.880;2023-11-19T01:25:27;100652.03;;;-7.91;86.28
76590;BME280;65471;55.908;37.880;2023-11-19T01:27:54;100641.72;;;-7.94;86.07
76590;BME280;65471;55.908;37.880;2023-11-19T01:30:24;100650.91;;;-7.87;86.49
76590;BME280;65471;55.908;37.880;2023-11-19T01:32:52;100641.91;;;-7.83;86.36
76590;BME280;65471;55.908;37.880;2023-11-19T01:35:19;100629.72;;;-7.84;85.79
76590;BME280;65471;55.908;37.880;2023-11-19T01:37:46;100627.97;;;-7.84;85.90
76590;BME280;65471;55.908;37.880;2023-11-19T01:40:13;100641.81;;;-7.82;85.66
76590;BME280;65471;55.908;37.880;2023-11-19T01:42:40;100630.59;;;-7.84;86.09
76590;BME280;65471;55.908;37.880;2023-11-19T01:45:08;100629.81;;;-7.86;85.49
76590;BME280;65471;55.908;37.880;2023-11-19T01:47:37;100628.88;;;-7.85;85.97
76590;BME280;65471;55.908;37.880;2023-11-19T01:50:06;100639.28;;;-7.83;85.44
76590;BME280;65471;55.908;37.880;2023-11-19T01:52:34;100634.88;;;-7.83;85.91
76590;BME280;65471;55.908;37.880;2023-11-19T01:55:07;100638.28;;;-7.81;85.56
76590;BME280;65471;55.908;37.880;2023-11-19T01:57:36;100631.22;;;-7.80;85.59
76590;BME280;65471;55.908;37.880;2023-11-19T02:00:08;100622.53;;;-7.81;86.33
76590;BME280;65471;55.908;37.880;2023-11-19T02:02:40;100629.38;;;-7.78;85.83
76590;BME280;65471;55.908;37.880;2023-11-19T02:05:10;100629.28;;;-7.76;86.19
76590;BME280;65471;55.908;37.880;2023-11-19T02:07:37;100628.22;;;-7.74;86.16
76590;BME280;65471;55.908;37.880;2023-11-19T02:10:05;100629.09;;;-7.73;85.69
76590;BME280;65471;55.908;37.880;2023-11-19T02:12:33;100621.31;;;-7.75;85.97
76590;BME280;65471;55.908;37.880;2023-11-19T02:15:03;100630.69;;;-7.71;86.35
76590;BME280;65471;55.908;37.880;2023-11-19T02:17:33;100634.78;;;-7.67;85.76
76590;BME280;65471;55.908;37.880;2023-11-19T02:20:01;100629.28;;;-7.62;85.83
76590;BME280;65471;55.908;37.880;2023-11-19T02:22:35;100618.59;;;-7.59;85.73
76590;BME280;65471;55.908;37.880;2023-11-19T02:25:07;100624.47;;;-7.55;86.51
76590;BME280;65471;55.908;37.880;2023-11-19T02:27:51;100623.34;;;-7.51;86.29
76590;BME280;65471;55.908;37.880;2023-11-19T02:30:23;100628.25;;;-7.45;86.31
76590;BME280;65471;55.908;37.880;2023-11-19T02:32:56;100628.34;;;-7.47;85.79
76590;BME280;65471;55.908;37.880;2023-11-19T02:35:25;100620.63;;;-7.50;85.71
76590;BME280;65471;55.908;37.880;2023-11-19T02:37:55;100627.78;;;-7.52;86.12
76590;BME280;65471;55.908;37.880;2023-11-19T02:40:22;100623.56;;;-7.54;86.31
76590;BME280;65471;55.908;37.880;2023-11-19T02:42:52;100623.09;;;-7.47;86.41
76590;BME280;65471;55.908;37.880;2023-11-19T02:45:19;100615.94;;;-7.44;86.01
76590;BME280;65471;55.908;37.880;2023-11-19T02:47:46;100627.03;;;-7.39;86.33
76590;BME280;65471;55.908;37.880;2023-11-19T02:50:13;100616.69;;;-7.42;85.85
76590;BME280;65471;55.908;37.880;2023-11-19T02:52:43;100609.28;;;-7.36;86.17
76590;BME280;65471;55.908;37.880;2023-11-19T02:55:12;100615.09;;;-7.31;85.88
76590;BME280;65471;55.908;37.880;2023-11-19T02:57:40;100612.19;;;-7.26;86.25
76590;BME280;65471;55.908;37.880;2023-11-19T03:00:16;100617.13;;;-7.21;86.09
76590;BME280;65471;55.908;37.880;2023-11-19T03:02:44;100618.00;;;-7.21;85.49
76590;BME280;65471;55.908;37.880;2023-11-19T03:05:21;100618.94;;;-7.22;85.62
76590;BME280;65471;55.908;37.880;2023-11-19T03:07:48;100613.00;;;-7.25;86.11
76590;BME280;65471;55.908;37.880;2023-11-19T03:10:15;100613.88;;;-7.25;85.58
76590;BME280;65471;55.908;37.880;2023-11-19T03:12:43;100613.00;;;-7.25;85.95
76590;BME280;65471;55.908;37.880;2023-11-19T03:15:11;100608.31;;;-7.20;85.71
76590;BME280;65471;55.908;37.880;2023-11-19T03:17:41;100604.75;;;-7.19;85.58
76590;BME280;65471;55.908;37.880;2023-11-19T03:20:10;100604.00;;;-7.21;86.19
76590;BME280;65471;55.908;37.880;2023-11-19T03:22:41;100592.94;;;-7.26;85.94
76590;BME280;65471;55.908;37.880;2023-11-19T03:25:08;100594.63;;;-7.25;86.19
76590;BME280;65471;55.908;37.880;2023-11-19T03:27:36;100598.09;;;-7.25;85.90
76590;BME280;65471;55.908;37.880;2023-11-19T03:30:04;100598.00;;;-7.23;86.43
76590;BME280;65471;55.908;37.880;2023-11-19T03:32:32;100600.06;;;-7.29;85.66
76590;BME280;65471;55.908;37.880;2023-11-19T03:34:59;100594.91;;;-7.30;85.85
76590;BME280;65471;55.908;37.880;2023-11-19T03:37:27;100590.59;;;-7.31;85.67
76590;BME280;65471;55.908;37.880;2023-11-19T03:39:54;100599.34;;;-7.31;86.09
76590;BME280;65471;55.908;37.880;2023-11-19T03:42:21;100597.44;;;-7.29;85.63
76590;BME280;65471;55.908;37.880;2023-11-19T03:44:49;100595.94;;;-7.33;86.01
76590;BME280;65471;55.908;37.880;2023-11-19T03:47:16;100598.47;;;-7.31;86.20
76590;BME280;65471;55.908;37.880;2023-11-19T03:49:47;100595.59;;;-7.26;85.85
76590;BME280;65471;55.908;37.880;2023-11-19T03:52:15;100601.38;;;-7.21;85.88
76590;BME280;65471;55.908;37.880;2023-11-19T03:54:46;100600.44;;;-7.20;85.84
76590;BME280;65471;55.908;37.880;2023-11-19T03:57:13;100593.28;;;-7.18;85.52
76590;BME280;65471;55.908;37.880;2023-11-19T03:59:41;100590.66;;;-7.18;85.25
76590;BME280;65471;55.908;37.880;2023-11-19T04:02:08;100586.75;;;-7.25;85.33
76590;BME280;65471;55.908;37.880;2023-11-19T04:04:35;100590.66;;;-7.18;85.64
76590;BME280;65471;55.908;37.880;2023-11-19T04:07:02;100592.72;;;-7.09;85.26
76590;BME280;65471;55.908;37.880;2023-11-19T04:09:30;100584.53;;;-7.04;85.88
76590;BME280;65471;55.908;37.880;2023-11-19T04:11:57;100575.81;;;-7.05;85.75
76590;BME280;65471;55.908;37.880;2023-11-19T04:14:24;100573.38;;;-7.08;85.26
76590;BME280;65471;55.908;37.880;2023-11-19T04:16:51;100567.16;;;-7.07;85.44
76590;BME280;65471;55.908;37.880;2023-11-19T04:19:19;100563.50;;;-7.04;85.48
76590;BME280;65471;55.908;37.880;2023-11-19T04:21:46;100564.53;;;-7.07;85.67
76590;BME280;65471;55.908;37.880;2023-11-19T04:24:13;100567.38;;;-7.10;85.73
76590;BME280;65471;55.908;37.880;2023-11-19T04:26:41;100554.13;;;-7.08;84.98
76590;BME280;65471;55.908;37.880;2023-11-19T04:29:12;100553.09;;;-7.06;85.01
76590;BME280;65471;55.908;37.880;2023-11-19T04:31:40;100545.50;;;-7.11;84.83
76590;BME280;65471;55.908;37.880;2023-11-19T04:34:07;100542.13;;;-7.13;85.49
76590;BME280;65471;55.908;37.880;2023-11-19T04:36:34;100552.75;;;-7.14;85.55
76590;BME280;65471;55.908;37.880;2023-11-19T04:39:01;100543.19;;;-7.15;85.47
76590;BME280;65471;55.908;37.880;2023-11-19T04:41:29;100549.38;;;-7.16;85.33
76590;BME280;65471;55.908;37.880;2023-11-19T04:43:56;100547.69;;;-7.17;85.20
76590;BME280;65471;55.908;37.880;2023-11-19T04:46:22;100555.78;;;-7.20;85.73
76590;BME280;65471;55.908;37.880;2023-11-19T04:48:50;100546.38;;;-7.24;85.28
76590;BME280;65471;55.908;37.880;2023-11-19T04:51:18;100548.00;;;-7.22;85.52
76590;BME280;65471;55.908;37.880;2023-11-19T04:53:45;100565.25;;;-7.18;85.70
76590;BME280;65471;55.908;37.880;2023-11-19T04:56:12;100555.03;;;-7.22;85.19
76590;BME280;65471;55.908;37.880;2023-11-19T04:58:40;100565.91;;;-7.29;85.67
76590;BME280;65471;55.908;37.880;2023-11-19T05:01:13;100565.28;;;-7.32;85.85
76590;BME280;65471;55.908;37.880;2023-11-19T05:03:42;100568.00;;;-7.34;85.61
76590;BME280;65471;55.908;37.880;2023-11-19T05:06:09;100566.94;;;-7.31;85.23
76590;BME280;65471;55.908;37.880;2023-11-19T05:08:36;100569.56;;;-7.31;84.83
76590;BME280;65471;55.908;37.880;2023-11-19T05:11:04;100564.41;;;-7.33;85.15
76590;BME280;65471;55.908;37.880;2023-11-19T05:13:32;100568.75;;;-7.32;85.23
76590;BME280;65471;55.908;37.880;2023-11-19T05:15:59;100568.75;;;-7.32;85.31
76590;BME280;65471;55.908;37.880;2023-11-19T05:18:26;100564.88;;;-7.26;85.35
76590;BME280;65471;55.908;37.880;2023-11-19T05:20:53;100574.06;;;-7.19;84.83
76590;BME280;65471;55.908;37.880;2023-11-19T05:23:20;100578.19;;;-7.15;85.14
76590;BME280;65471;55.908;37.880;2023-11-19T05:25:48;100573.03;;;-7.16;84.83
76590;BME280;65471;55.908;37.880;2023-11-19T05:28:15;100576.59;;;-7.17;84.68
76590;BME280;65471;55.908;37.880;2023-11-19T05:30:42;100574.72;;;-7.15;84.61
76590;BME280;65471;55.908;37.880;2023-11-19T05:33:09;100572.81;;;-7.13;84.69
76590;BME280;65471;55.908;37.880;2023-11-19T05:35:35;100570.88;;;-7.09;84.69
76590;BME280;65471;55.908;37.880;2023-11-19T05:38:02;100578.75;;;-7.09;85.32
76590;BME280;65471;55.908;37.880;2023-11-19T05:40:30;100579.56;;;-7.09;84.80
76590;BME280;65471;55.908;37.880;2023-11-19T05:42:57;100574.13;;;-7.06;85.50
76590;BME280;65471;55.908;37.880;2023-11-19T05:45:23;100571.50;;;-7.06;84.74
76590;BME280;65471;55.908;37.880;2023-11-19T05:47:51;100569.44;;;-7.01;84.71
76590;BME280;65471;55.908;37.880;2023-11-19T05:50:19;100577.94;;;-6.97;85.11
76590;BME280;65471;55.908;37.880;2023-11-19T05:52:46;100587.31;;;-6.93;85.16
76590;BME280;65471;55.908;37.880;2023-11-19T05:55:13;100581.97;;;-6.91;84.75
76590;BME280;65471;55.908;37.880;2023-11-19T05:57:40;100573.97;;;-6.90;85.17
76590;BME280;65471;55.908;37.880;2023-11-19T06:00:11;100577.47;;;-6.89;84.94
76590;BME280;65471;55.908;37.880;2023-11-19T06:02:39;100576.06;;;-6.95;84.87
76590;BME280;65471;55.908;37.880;2023-11-19T06:05:07;100581.59;;;-6.85;85.29
76590;BME280;65471;55.908;37.880;2023-11-19T06:07:34;100584.94;;;-6.83;84.66
76590;BME280;65471;55.908;37.880;2023-11-19T06:10:03;100579.78;;;-6.85;85.05
76590;BME280;65471;55.908;37.880;2023-11-19T06:12:33;100582.22;;;-6.82;84.89
76590;BME280;65471;55.908;37.880;2023-11-19T06:15:05;100576.84;;;-6.80;85.36
76590;BME280;65471;55.908;37.880;2023-11-19T06:17:33;100582.97;;;-6.80;85.07
76590;BME280;65471;55.908;37.880;2023-11-19T06:20:00;100571.78;;;-6.83;85.06
76590;BME280;65471;55.908;37.880;2023-11-19T06:22:27;100568.50;;;-6.87;84.41
76590;BME280;65471;55.908;37.880;2023-11-19T06:24:55;100578.19;;;-6.87;85.13
76590;BME280;65471;55.908;37.880;2023-11-19T06:27:22;100570.09;;;-6.84;85.21
76590;BME280;65471;55.908;37.880;2023-11-19T06:29:49;100565.03;;;-6.87;84.93
76590;BME280;65471;55.908;37.880;2023-11-19T06:32:16;100565.47;;;-6.94;84.69
76590;BME280;65471;55.908;37.880;2023-11-19T06:34:43;100562.63;;;-6.90;84.83
76590;BME280;65471;55.908;37.880;2023-11-19T06:37:10;100563.19;;;-6.85;84.48
76590;BME280;65471;55.908;37.880;2023-11-19T06:39:37;100564.56;;;-6.80;84.14
76590;BME280;65471;55.908;37.880;2023-11-19T06:42:05;100553.84;;;-6.77;84.54
76590;BME280;65471;55.908;37.880;2023-11-19T06:44:32;100559.00;;;-6.75;84.73
76590;BME280;65471;55.908;37.880;2023-11-19T06:46:58;100564.03;;;-6.72;84.04
76590;BME280;65471;55.908;37.880;2023-11-19T06:49:25;100560.47;;;-6.71;84.34
76590;BME280;65471;55.908;37.880;2023-11-19T06:51:52;100545.44;;;-6.69;84.53
76590;BME280;65471;55.908;37.880;2023-11-19T06:54:19;100554.59;;;-6.62;84.53
76590;BME280;65471;55.908;37.880;2023-11-19T06:56:46;100558.09;;;-6.61;84.66
76590;BME280;65471;55.908;37.880;2023-11-19T06:59:14;100556.91;;;-6.57;84.81
76590;BME280;65471;55.908;37.880;2023-11-19T07:01:41;100548.75;;;-6.52;84.85
76590;BME280;65471;55.908;37.880;2023-11-19T07:04:13;100546.13;;;-6.52;84.20
76590;BME280;65471;55.908;37.880;2023-11-19T07:06:40;100549.25;;;-6.47;84.83
76590;BME280;65471;55.908;37.880;2023-11-19T07:09:08;100554.22;;;-6.43;84.86
76590;BME280;65471;55.908;37.880;2023-11-19T07:11:39;100549.59;;;-6.39;84.78
76590;BME280;65471;55.908;37.880;2023-11-19T07:14:07;100553.06;;;-6.38;84.65
76590;BME280;65471;55.908;37.880;2023-11-19T07:16:35;100553.81;;;-6.36;84.48
76590;BME280;65471;55.908;37.880;2023-11-19T07:19:06;100546.66;;;-6.34;84.62
76590;BME280;65471;55.908;37.880;2023-11-19T07:21:33;100554.25;;;-6.30;84.74
76590;BME280;65471;55.908;37.880;2023-11-19T07:24:01;100545.50;;;-6.30;84.11
76590;BME280;65471;55.908;37.880;2023-11-19T07:26:28;100553.00;;;-6.24;84.24
76590;BME280;65471;55.908;37.880;2023-11-19T07:28:55;100551.91;;;-6.21;84.15
76590;BME280;65471;55.908;37.880;2023-11-19T07:31:24;100548.44;;;-6.22;84.39
76590;BME280;65471;55.908;37.880;2023-11-19T07:33:50;100554.38;;;-6.18;84.03
76590;BME280;65471;55.908;37.880;2023-11-19T07:36:17;100567.53;;;-6.18;84.49
76590;BME280;65471;55.908;37.880;2023-11-19T07:38:45;100567.22;;;-6.14;84.33
76590;BME280;65471;55.908;37.880;2023-11-19T07:41:13;100558.38;;;-6.13;84.39
76590;BME280;65471;55.908;37.880;2023-11-19T07:43:43;100554.03;;;-6.14;83.79
76590;BME280;65471;55.908;37.880;2023-11-19T07:46:11;100559.94;;;-6.10;83.50
76590;BME280;65471;55.908;37.880;2023-11-19T07:48:39;100558.06;;;-6.08;83.82
76590;BME280;65471;55.908;37.880;2023-11-19T07:51:08;100564.59;;;-6.01;83.48
76590;BME280;65471;55.908;37.880;2023-11-19T07:53:35;100556.97;;;-5.93;83.44
76590;BME280;65471;55.908;37.880;2023-11-19T07:56:04;100557.59;;;-5.89;83.20
76590;BME280;65471;55.908;37.880;2023-11-19T07:58:32;100559.28;;;-5.88;83.53
76590;BME280;65471;55.908;37.880;2023-11-19T08:00:59;100559.59;;;-5.93;83.80
76590;BME280;65471;55.908;37.880;2023-11-19T08:03:26;100555.50;;;-5.97;83.84
76590;BME280;65471;55.908;37.880;2023-11-19T08:05:56;100549.06;;;-5.93;83.52
76590;BME280;65471;55.908;37.880;2023-11-19T08:08:24;100540.41;;;-5.95;84.06
76590;BME280;65471;55.908;37.880;2023-11-19T08:10:51;100552.75;;;-5.95;83.97
76590;BME280;65471;55.908;37.880;2023-11-19T08:13:18;100543.72;;;-6.04;83.68
76590;BME280;65471;55.908;37.880;2023-11-19T08:15:47;100549.09;;;-6.05;84.08
76590;BME280;65471;55.908;37.880;2023-11-19T08:18:14;100550.88;;;-6.06;83.45
76590;BME280;65471;55.908;37.880;2023-11-19T08:20:41;100541.22;;;-6.05;83.58
76590;BME280;65471;55.908;37.880;2023-11-19T08:23:09;100540.34;;;-6.06;83.94
76590;BME280;65471;55.908;37.880;2023-11-19T08:25:36;100537.59;;;-6.04;83.33
76590;BME280;65471;55.908;37.880;2023-11-19T08:28:03;100534.16;;;-6.05;83.84
76590;BME280;65471;55.908;37.880;2023-11-19T08:30:30;100524.97;;;-5.99;84.13
76590;BME280;65471;55.908;37.880;2023-11-19T08:32:57;100520.28;;;-5.96;83.97
76590;BME280;65471;55.908;37.880;2023-11-19T08:35:25;100512.41;;;-5.96;84.21
76590;BME280;65471;55.908;37.880;2023-11-19T08:37:52;100516.72;;;-5.95;83.62
76590;BME280;65471;55.908;37.880;2023-11-19T08:40:20;100521.41;;;-5.98;83.83
76590;BME280;65471;55.908;37.880;2023-11-19T08:42:46;100516.97;;;-5.98;83.78
76590;BME280;65471;55.908;37.880;2023-11-19T08:45:13;100522.84;;;-5.94;83.40
76590;BME280;65471;55.908;37.880;2023-11-19T08:47:41;100524.63;;;-5.95;83.84
76590;BME280;65471;55.908;37.880;2023-11-19T08:50:08;100521.16;;;-5.95;nan
76590;BME280;65471;55.908;37.880;2023-11-19T08:52:35;100520.44;;;-5.97;83.49
76590;BME280;65471;55.908;37.880;2023-11-19T08:55:02;100509.19;;;-5.99;82.90
76590;BME280;65471;55.908;37.880;2023-11-19T08:57:30;100515.78;;;-5.94;83.30
76590;BME280;65471;55.908;37.880;2023-11-19T08:59:56;100517.47;;;-5.93;82.83
76590;BME280;65471;55.908;37.880;2023-11-19T09:02:23;100509.84;;;-5.84;83.36
76590;BME280;65471;55.908;37.880;2023-11-19T09:04:51;100505.00;;;-5.78;82.83
76590;BME280;65471;55.908;37.880;2023-11-19T09:07:20;100504.91;;;-5.76;83.07
76590;BME280;65471;55.908;37.880;2023-11-19T09:09:48;100505.44;;;-5.71;82.78
76590;BME280;65471;55.908;37.880;2023-11-19T09:12:15;100519.31;;;-5.69;82.74
76590;BME280;65471;55.908;37.880;2023-11-19T09:14:42;100517.22;;;-5.64;82.57
76590;BME280;65471;55.908;37.880;2023-11-19T09:17:09;100506.78;;;-5.65;82.33
76590;BME280;65471;55.908;37.880;2023-11-19T09:19:37;100510.34;;;-5.66;82.36
76590;BME280;65471;55.908;37.880;2023-11-19T09:22:04;100503.19;;;-5.64;82.63
76590;BME280;65471;55.908;37.880;2023-11-19T09:24:31;100494.84;;;-5.58;82.34
76590;BME280;65471;55.908;37.880;2023-11-19T09:26:58;100498.09;;;-5.55;82.20
76590;BME280;65471;55.908;37.880;2023-11-19T09:29:24;100501.06;;;-5.59;82.01
76590;BME280;65471;55.908;37.880;2023-11-19T09:31:51;100497.38;;;-5.57;82.34
76590;BME280;65471;55.908;37.880;2023-11-19T09:34:18;100489.34;;;-5.55;82.11
76590;BME280;65471;55.908;37.880;2023-11-19T09:36:45;100480.63;;;-5.56;81.98
76590;BME280;65471;55.908;37.880;2023-11-19T09:39:12;100475.56;;;-5.59;81.66
76590;BME280;65471;55.908;37.880;2023-11-19T09:41:41;100473.22;;;-5.50;81.63
76590;BME280;65471;55.908;37.880;2023-11-19T09:44:09;100479.00;;;-5.45;81.55
76590;BME280;65471;55.908;37.880;2023-11-19T09:46:36;100478.88;;;-5.44;81.41
76590;BME280;65471;55.908;37.880;2023-11-19T09:49:04;100477.09;;;-5.43;81.71
76590;BME280;65471;55.908;37.880;2023-11-19T09:51:38;100473.00;;;-5.47;80.91
76590;BME280;65471;55.908;37.880;2023-11-19T09:54:05;100465.31;;;-5.50;80.60
76590;BME280;65471;55.908;37.880;2023-11-19T09:56:35;100465.75;;;-5.57;80.71
76590;BME280;65471;55.908;37.880;2023-11-19T09:59:03;100462.50;;;-5.60;80.49
76590;BME280;65471;55.908;37.880;2023-11-19T10:01:30;100455.34;;;-5.58;79.94
76590;BME280;65471;55.908;37.880;2023-11-19T10:03:59;100449.97;;;-5.57;80.33
76590;BME280;65471;55.908;37.880;2023-11-19T10:06:27;100446.88;;;-5.50;80.71
76590;BME280;65471;55.908;37.880;2023-11-19T10:08:54;100441.38;;;-5.47;80.12
76590;BME280;65471;55.908;37.880;2023-11-19T10:11:22;100439.97;;;-5.40;80.42
76590;BME280;65471;55.908;37.880;2023-11-19T10:13:49;100445.47;;;-5.43;80.21
76590;BME280;65471;55.908;37.880;2023-11-19T10:16:17;100432.63;;;-5.48;80.40
76590;BME280;65471;55.908;37.880;2023-11-19T10:18:49;100424.50;;;-5.45;80.44
76590;BME280;65471;55.908;37.880;2023-11-19T10:21:18;100432.34;;;-5.32;80.24
76590;BME280;65471;55.908;37.880;2023-11-19T10:23:50;100427.13;;;-5.21;79.93
76590;BME280;65471;55.908;37.880;2023-11-19T10:26:19;100428.06;;;-5.22;79.24
76590;BME280;65471;55.908;37.880;2023-11-19T10:28:47;100422.47;;;-5.17;79.30
76590;BME280;65471;55.908;37.880;2023-11-19T10:31:18;100419.84;;;-5.17;79.06
76590;BME280;65471;55.908;37.880;2023-11-19T10:33:46;100426.41;;;-5.23;78.08
76590;BME280;65471;55.908;37.880;2023-11-19T10:36:14;100424.19;;;-5.29;78.09
76590;BME280;65471;55.908;37.880;2023-11-19T10:38:51;100420.03;;;-5.31;78.39
76590;BME280;65471;55.908;37.880;2023-11-19T10:41:29;100411.38;;;-5.33;78.52
76590;BME280;65471;55.908;37.880;2023-11-19T10:44:00;100426.13;;;-5.31;78.57
76590;BME280;65471;55.908;37.880;2023-11-19T10:46:41;100416.41;;;-5.30;78.23
76590;BME280;65471;55.908;37.880;2023-11-19T10:49:08;100413.28;;;-5.35;78.73
76590;BME280;65471;55.908;37.880;2023-11-19T10:51:35;100419.41;;;-5.35;78.57
76590;BME280;65471;55.908;37.880;2023-11-19T10:54:04;100426.06;;;-5.42;79.06
76590;BME280;65471;55.908;37.880;2023-11-19T10:56:34;100424.00;;;-5.50;78.87
76590;BME280;65471;55.908;37.880;2023-11-19T10:59:02;100422.44;;;-5.52;78.99
76590;BME280;65471;55.908;37.880;2023-11-19T11:01:50;100419.91;;;-5.54;78.49
76590;BME280;65471;55.908;37.880;2023-11-19T11:04:23;100417.41;;;-5.56;78.54
76590;BME280;65471;55.908;37.880;2023-11-19T11:06:51;100422.78;;;-5.57;78.68
76590;BME280;65471;55.908;37.880;2023-11-19T11:09:18;100427.41;;;-5.61;79.09
76590;BME280;65471;55.908;37.880;2023-11-19T11:11:47;100418.78;;;-5.63;78.65
76590;BME280;65471;55.908;37.880;2023-11-19T11:14:16;100418.69;;;-5.61;78.49
76590;BME280;65471;55.908;37.880;2023-11-19T11:16:46;100418.56;;;-5.60;78.63
76590;BME280;65471;55.908;37.880;2023-11-19T11:19:13;100423.09;;;-5.62;78.72
76590;BME280;65471;55.908;37.880;2023-11-19T11:21:44;100426.69;;;-5.63;78.27
76590;BME280;65471;55.908;37.880;2023-11-19T11:30:24;100416.75;;;-5.59;78.61
76590;BME280;65471;55.908;37.880;2023-11-19T11:38:11;100404.16;;;-5.67;78.73
76590;BME280;65471;55.908;37.880;2023-11-19T11:40:40;100403.41;;;-5.69;78.51
76590;BME280;65471;55.908;37.880;2023-11-19T11:43:45;100406.28;;;-5.72;79.07
76590;BME280;65471;55.908;37.880;2023-11-19T11:49:02;100416.59;;;-5.69;78.78
76590;BME280;65471;55.908;37.880;2023-11-19T12:02:13;100398.06;;;-5.80;78.67
76590;BME280;65471;55.908;37.880;2023-11-19T12:04:41;100404.22;;;-5.80;78.37
76590;BME280;65471;55.908;37.880;2023-11-19T12:07:12;100406.63;;;-5.77;78.67
76590;BME280;65471;55.908;37.880;2023-11-19T12:09:41;100400.41;;;-5.76;78.20
76590;BME280;65471;55.908;37.880;2023-11-19T12:20:00;100398.06;;;-5.80;78.48
76590;BME280;65471;55.908;37.880;2023-11-19T12:22:29;100409.47;;;-5.80;78.03
76590;BME280;65471;55.908;37.880;2023-11-19T12:24:56;100409.38;;;-5.78;78.05
76590;BME280;65471;55.908;37.880;2023-11-19T12:27:23;100398.94;;;-5.80;77.79
76590;BME280;65471;55.908;37.880;2023-11-19T12:29:50;100393.88;;;-5.83;77.78
76590;BME280;65471;55.908;37.880;2023-11-19T12:32:18;100398.41;;;-5.85;78.19
76590;BME280;65471;55.908;37.880;2023-11-19T12:34:45;100400.00;;;-5.82;78.01
76590;BME280;65471;55.908;37.880;2023-11-19T12:37:12;100396.63;;;-5.84;77.62
76590;BME280;65471;55.908;37.880;2023-11-19T12:39:39;100399.38;;;-5.86;78.06
76590;BME280;65471;55.908;37.880;2023-11-19T12:42:07;100396.72;;;-5.86;78.04
76590;BME280;65471;55.908;37.880;2023-11-19T12:44:34;100392.56;;;-5.88;77.84
76590;BME280;65471;55.908;37.880;2023-11-19T12:47:03;100387.59;;;-5.93;77.97
76590;BME280;65471;55.908;37.880;2023-11-19T12:49:30;100392.25;;;-5.97;77.41
76590;BME280;65471;55.908;37.880;2023-11-19T12:51:57;100381.13;;;-6.00;77.93
76590;BME280;65471;55.908;37.880;2023-11-19T12:54:32;100376.22;;;-5.94;77.90
76590;BME280;65471;55.908;37.880;2023-11-19T12:56:59;100377.69;;;-5.90;77.82
76590;BME280;65471;55.908;37.880;2023-11-19T12:59:26;100362.13;;;-5.93;77.30
76590;BME280;65471;55.908;37.880;2023-11-19T13:01:55;100375.28;;;-5.93;77.33
76590;BME280;65471;55.908;37.880;2023-11-19T13:04:23;100372.84;;;-5.96;77.23
76590;BME280;65471;55.908;37.880;2023-11-19T13:06:54;100364.38;;;-5.99;77.50
76590;BME280;65471;55.908;37.880;2023-11-19T13:09:27;100361.09;;;-6.03;76.91
76590;BME280;65471;55.908;37.880;2023-11-19T13:11:55;100349.13;;;-6.07;77.17
76590;BME280;65471;55.908;37.880;2023-11-19T13:14:23;100340.50;;;-6.09;77.44
76590;BME280;65471;55.908;37.880;2023-11-19T13:16:50;100346.00;;;-6.12;77.27
76590;BME280;65471;55.908;37.880;2023-11-19T13:19:17;100348.97;;;-6.17;77.41